Pasman, Argentina
Current Conditions -  °F | °C
As of 12:00 PM on Friday 24 Oct 2014 (Local Time) from SAZM Reporting Station
Scattered Clouds Scattered Clouds  
Wind Chill: 18°   Ceiling: Unl
Heat Index: 18°   Visibility: 6mi
Dew Point: 14°   Wind: 15mph
Humidity: 77%   Direction: 90°E
Pressure: 30.06"   Gusts: NA
Location:  37.23°S, 62.17°W
Report Text: SAZM 241500Z 09013KT 9999 SCT020 SCT20018/14 Q1018
Loading
Personal Weather Stations






























Interactive Weather Map
Tropical Storm Tracking
New forecast layout! Learn more

10-Day Weather Forecast

Advertisements
Track Severe Weather on mobile